Elroy, Wisconsin
Current Conditions -  °F | °C
As of 9:58 AM on Friday 19 Dec 2014 (Local Time) from KVOK Reporting Station
Overcast Overcast  
Wind Chill: -4°   Ceiling: 1000
Heat Index: -4°   Visibility: 10mi
Dew Point: -4°   Wind: 0mph
Humidity: 100%   Direction: NA
Pressure: 30.3"   Gusts: NA
Location:  43.74°N, 90.27°W
Report Text: KVOK 191558Z 00000KT 10SM OVC010 M04/M04 A3030 RMK AO2A SLP278
Loading
Personal Weather Stations






























Interactive Weather Map New forecast layout! Learn more

10-Day Weather Forecast

Advertisements
Track Severe Weather on mobile